sensor_id;sensor_type;location;lat;lon;timestamp;P1;durP1;ratioP1;P2;durP2;ratioP2
49071;SDS011;74284;52.610;10.236;2024-02-26T00:01:41;18.45;;;13.02;;
49071;SDS011;74284;52.610;10.236;2024-02-26T00:04:08;19.23;;;13.00;;
49071;SDS011;74284;52.610;10.236;2024-02-26T00:06:34;16.25;;;12.40;;
49071;SDS011;74284;52.610;10.236;2024-02-26T00:08:59;16.58;;;12.55;;
49071;SDS011;74284;52.610;10.236;2024-02-26T00:13:51;15.23;;;11.15;;
49071;SDS011;74284;52.610;10.236;2024-02-26T00:16:16;18.03;;;11.83;;
49071;SDS011;74284;52.610;10.236;2024-02-26T00:18:41;14.40;;;11.05;;
49071;SDS011;74284;52.610;10.236;2024-02-26T00:21:06;14.40;;;9.98;;
49071;SDS011;74284;52.610;10.236;2024-02-26T00:23:32;14.13;;;10.17;;
49071;SDS011;74284;52.610;10.236;2024-02-26T00:25:57;12.55;;;9.32;;
49071;SDS011;74284;52.610;10.236;2024-02-26T00:28:23;11.43;;;8.68;;
49071;SDS011;74284;52.610;10.236;2024-02-26T00:30:49;14.02;;;10.50;;
49071;SDS011;74284;52.610;10.236;2024-02-26T00:33:16;15.80;;;10.35;;
49071;SDS011;74284;52.610;10.236;2024-02-26T00:35:42;15.23;;;9.60;;
49071;SDS011;74284;52.610;10.236;2024-02-26T00:38:07;11.65;;;9.13;;
49071;SDS011;74284;52.610;10.236;2024-02-26T00:40:32;13.43;;;9.43;;
49071;SDS011;74284;52.610;10.236;2024-02-26T00:42:58;14.18;;;9.80;;
49071;SDS011;74284;52.610;10.236;2024-02-26T00:45:23;15.90;;;10.30;;
49071;SDS011;74284;52.610;10.236;2024-02-26T00:47:48;14.18;;;9.70;;
49071;SDS011;74284;52.610;10.236;2024-02-26T00:50:14;13.50;;;8.52;;
49071;SDS011;74284;52.610;10.236;2024-02-26T00:52:40;12.65;;;9.00;;
49071;SDS011;74284;52.610;10.236;2024-02-26T00:55:05;14.93;;;9.13;;
49071;SDS011;74284;52.610;10.236;2024-02-26T00:59:56;13.18;;;8.77;;
49071;SDS011;74284;52.610;10.236;2024-02-26T01:02:22;12.05;;;8.65;;
49071;SDS011;74284;52.610;10.236;2024-02-26T01:04:48;12.07;;;8.45;;
49071;SDS011;74284;52.610;10.236;2024-02-26T01:07:13;10.40;;;7.57;;
49071;SDS011;74284;52.610;10.236;2024-02-26T01:09:38;11.38;;;7.78;;
49071;SDS011;74284;52.610;10.236;2024-02-26T01:12:04;10.43;;;7.28;;
49071;SDS011;74284;52.610;10.236;2024-02-26T01:14:29;10.98;;;6.95;;
49071;SDS011;74284;52.610;10.236;2024-02-26T01:16:55;9.90;;;6.75;;
49071;SDS011;74284;52.610;10.236;2024-02-26T01:19:20;10.30;;;7.00;;
49071;SDS011;74284;52.610;10.236;2024-02-26T01:21:46;11.90;;;7.40;;
49071;SDS011;74284;52.610;10.236;2024-02-26T01:24:11;10.57;;;7.28;;
49071;SDS011;74284;52.610;10.236;2024-02-26T01:26:36;10.35;;;6.88;;
49071;SDS011;74284;52.610;10.236;2024-02-26T01:29:02;9.65;;;6.90;;
49071;SDS011;74284;52.610;10.236;2024-02-26T01:31:27;8.90;;;6.30;;
49071;SDS011;74284;52.610;10.236;2024-02-26T01:33:52;8.97;;;6.23;;
49071;SDS011;74284;52.610;10.236;2024-02-26T01:36:18;10.27;;;6.28;;
49071;SDS011;74284;52.610;10.236;2024-02-26T01:38:43;8.75;;;6.30;;
49071;SDS011;74284;52.610;10.236;2024-02-26T01:41:08;8.02;;;5.60;;
49071;SDS011;74284;52.610;10.236;2024-02-26T01:43:34;9.35;;;6.35;;
49071;SDS011;74284;52.610;10.236;2024-02-26T01:45:59;14.20;;;8.10;;
49071;SDS011;74284;52.610;10.236;2024-02-26T01:48:25;9.68;;;6.82;;
49071;SDS011;74284;52.610;10.236;2024-02-26T01:50:51;8.93;;;6.55;;
49071;SDS011;74284;52.610;10.236;2024-02-26T01:53:16;8.73;;;6.45;;
49071;SDS011;74284;52.610;10.236;2024-02-26T01:55:42;8.45;;;5.93;;
49071;SDS011;74284;52.610;10.236;2024-02-26T01:58:07;11.07;;;6.47;;
49071;SDS011;74284;52.610;10.236;2024-02-26T02:02:59;11.07;;;6.70;;
49071;SDS011;74284;52.610;10.236;2024-02-26T02:05:26;12.43;;;6.80;;
49071;SDS011;74284;52.610;10.236;2024-02-26T02:07:52;9.07;;;6.55;;
49071;SDS011;74284;52.610;10.236;2024-02-26T02:10:18;10.20;;;6.40;;
49071;SDS011;74284;52.610;10.236;2024-02-26T02:12:47;10.43;;;6.88;;
49071;SDS011;74284;52.610;10.236;2024-02-26T02:15:13;8.93;;;6.72;;
49071;SDS011;74284;52.610;10.236;2024-02-26T02:17:39;10.25;;;7.43;;
49071;SDS011;74284;52.610;10.236;2024-02-26T02:20:07;10.02;;;7.05;;
49071;SDS011;74284;52.610;10.236;2024-02-26T02:22:43;9.00;;;6.20;;
49071;SDS011;74284;52.610;10.236;2024-02-26T02:25:11;9.35;;;6.28;;
49071;SDS011;74284;52.610;10.236;2024-02-26T02:27:37;9.55;;;6.57;;
49071;SDS011;74284;52.610;10.236;2024-02-26T02:30:03;9.25;;;6.03;;
49071;SDS011;74284;52.610;10.236;2024-02-26T02:32:29;8.10;;;5.57;;
49071;SDS011;74284;52.610;10.236;2024-02-26T02:34:55;8.70;;;5.95;;
49071;SDS011;74284;52.610;10.236;2024-02-26T02:37:21;9.63;;;5.97;;
49071;SDS011;74284;52.610;10.236;2024-02-26T02:39:47;8.17;;;5.70;;
49071;SDS011;74284;52.610;10.236;2024-02-26T02:42:12;10.93;;;5.65;;
49071;SDS011;74284;52.610;10.236;2024-02-26T02:44:37;7.88;;;5.60;;
49071;SDS011;74284;52.610;10.236;2024-02-26T02:47:03;7.67;;;5.87;;
49071;SDS011;74284;52.610;10.236;2024-02-26T02:49:28;8.77;;;5.40;;
49071;SDS011;74284;52.610;10.236;2024-02-26T02:51:53;8.82;;;5.60;;
49071;SDS011;74284;52.610;10.236;2024-02-26T02:54:19;8.85;;;5.22;;
49071;SDS011;74284;52.610;10.236;2024-02-26T02:56:45;8.13;;;5.55;;
49071;SDS011;74284;52.610;10.236;2024-02-26T02:59:10;8.45;;;5.97;;
49071;SDS011;74284;52.610;10.236;2024-02-26T03:01:35;9.93;;;6.03;;
49071;SDS011;74284;52.610;10.236;2024-02-26T03:04:01;7.63;;;5.63;;
49071;SDS011;74284;52.610;10.236;2024-02-26T03:06:26;8.07;;;5.90;;
49071;SDS011;74284;52.610;10.236;2024-02-26T03:08:53;7.38;;;5.10;;
49071;SDS011;74284;52.610;10.236;2024-02-26T03:13:44;8.65;;;5.30;;
49071;SDS011;74284;52.610;10.236;2024-02-26T03:16:10;6.68;;;5.00;;
49071;SDS011;74284;52.610;10.236;2024-02-26T03:18:36;8.10;;;5.30;;
49071;SDS011;74284;52.610;10.236;2024-02-26T03:21:03;7.63;;;5.40;;
49071;SDS011;74284;52.610;10.236;2024-02-26T03:23:29;7.68;;;4.85;;
49071;SDS011;74284;52.610;10.236;2024-02-26T03:25:56;7.07;;;5.15;;
49071;SDS011;74284;52.610;10.236;2024-02-26T03:28:23;7.32;;;5.32;;
49071;SDS011;74284;52.610;10.236;2024-02-26T03:30:48;6.40;;;5.40;;
49071;SDS011;74284;52.610;10.236;2024-02-26T03:33:13;8.48;;;5.97;;
49071;SDS011;74284;52.610;10.236;2024-02-26T03:35:38;7.90;;;5.23;;
49071;SDS011;74284;52.610;10.236;2024-02-26T03:38:04;7.77;;;5.33;;
49071;SDS011;74284;52.610;10.236;2024-02-26T03:40:29;8.07;;;5.30;;
49071;SDS011;74284;52.610;10.236;2024-02-26T03:42:54;6.97;;;5.07;;
49071;SDS011;74284;52.610;10.236;2024-02-26T03:45:22;8.40;;;5.47;;
49071;SDS011;74284;52.610;10.236;2024-02-26T03:47:47;8.13;;;5.15;;
49071;SDS011;74284;52.610;10.236;2024-02-26T03:50:13;8.80;;;5.30;;
49071;SDS011;74284;52.610;10.236;2024-02-26T03:52:38;7.43;;;5.07;;
49071;SDS011;74284;52.610;10.236;2024-02-26T03:55:03;8.80;;;5.27;;
49071;SDS011;74284;52.610;10.236;2024-02-26T03:57:29;8.65;;;5.32;;
49071;SDS011;74284;52.610;10.236;2024-02-26T03:59:54;7.70;;;5.28;;
49071;SDS011;74284;52.610;10.236;2024-02-26T04:02:20;7.07;;;5.13;;
49071;SDS011;74284;52.610;10.236;2024-02-26T04:04:45;7.38;;;5.07;;
49071;SDS011;74284;52.610;10.236;2024-02-26T04:07:11;7.28;;;5.10;;
49071;SDS011;74284;52.610;10.236;2024-02-26T04:09:38;7.82;;;4.93;;
49071;SDS011;74284;52.610;10.236;2024-02-26T04:12:03;7.32;;;4.88;;
49071;SDS011;74284;52.610;10.236;2024-02-26T04:14:29;7.55;;;5.13;;
49071;SDS011;74284;52.610;10.236;2024-02-26T04:16:54;6.13;;;4.50;;
49071;SDS011;74284;52.610;10.236;2024-02-26T04:19:19;6.38;;;4.45;;
49071;SDS011;74284;52.610;10.236;2024-02-26T04:21:45;6.15;;;4.40;;
49071;SDS011;74284;52.610;10.236;2024-02-26T04:24:10;6.72;;;4.75;;
49071;SDS011;74284;52.610;10.236;2024-02-26T04:26:36;6.85;;;4.50;;
49071;SDS011;74284;52.610;10.236;2024-02-26T04:29:02;5.43;;;4.43;;
49071;SDS011;74284;52.610;10.236;2024-02-26T04:31:27;7.65;;;4.38;;
49071;SDS011;74284;52.610;10.236;2024-02-26T04:33:52;7.37;;;4.30;;
49071;SDS011;74284;52.610;10.236;2024-02-26T04:36:18;7.60;;;4.15;;
49071;SDS011;74284;52.610;10.236;2024-02-26T04:38:43;6.47;;;4.10;;
49071;SDS011;74284;52.610;10.236;2024-02-26T04:41:09;6.28;;;4.20;;
49071;SDS011;74284;52.610;10.236;2024-02-26T04:43:35;7.18;;;4.38;;
49071;SDS011;74284;52.610;10.236;2024-02-26T04:46:06;5.90;;;4.07;;
49071;SDS011;74284;52.610;10.236;2024-02-26T04:48:32;8.73;;;3.63;;
49071;SDS011;74284;52.610;10.236;2024-02-26T04:50:57;5.83;;;4.03;;
49071;SDS011;74284;52.610;10.236;2024-02-26T04:53:22;7.43;;;4.18;;
49071;SDS011;74284;52.610;10.236;2024-02-26T04:55:48;5.32;;;4.13;;
49071;SDS011;74284;52.610;10.236;2024-02-26T04:58:13;5.63;;;4.10;;
49071;SDS011;74284;52.610;10.236;2024-02-26T05:00:38;5.90;;;4.20;;
49071;SDS011;74284;52.610;10.236;2024-02-26T05:03:04;4.72;;;3.70;;
49071;SDS011;74284;52.610;10.236;2024-02-26T05:05:29;6.45;;;3.78;;
49071;SDS011;74284;52.610;10.236;2024-02-26T05:07:54;6.87;;;4.67;;
49071;SDS011;74284;52.610;10.236;2024-02-26T05:10:20;7.03;;;4.53;;
49071;SDS011;74284;52.610;10.236;2024-02-26T05:12:45;5.75;;;4.00;;
49071;SDS011;74284;52.610;10.236;2024-02-26T05:15:10;6.25;;;4.53;;
49071;SDS011;74284;52.610;10.236;2024-02-26T05:17:36;6.50;;;4.43;;
49071;SDS011;74284;52.610;10.236;2024-02-26T05:20:01;6.67;;;4.17;;
49071;SDS011;74284;52.610;10.236;2024-02-26T05:22:27;5.88;;;4.60;;
49071;SDS011;74284;52.610;10.236;2024-02-26T05:24:52;8.65;;;4.63;;
49071;SDS011;74284;52.610;10.236;2024-02-26T05:27:17;7.82;;;4.85;;
49071;SDS011;74284;52.610;10.236;2024-02-26T05:29:43;7.18;;;4.85;;
49071;SDS011;74284;52.610;10.236;2024-02-26T05:32:08;8.45;;;4.97;;
49071;SDS011;74284;52.610;10.236;2024-02-26T05:34:33;6.82;;;5.07;;
49071;SDS011;74284;52.610;10.236;2024-02-26T05:36:59;6.85;;;4.80;;
49071;SDS011;74284;52.610;10.236;2024-02-26T05:39:24;6.67;;;4.77;;
49071;SDS011;74284;52.610;10.236;2024-02-26T05:41:50;6.50;;;5.00;;
49071;SDS011;74284;52.610;10.236;2024-02-26T05:44:15;7.67;;;4.60;;
49071;SDS011;74284;52.610;10.236;2024-02-26T05:49:07;6.85;;;4.90;;
49071;SDS011;74284;52.610;10.236;2024-02-26T05:51:32;6.88;;;5.18;;
49071;SDS011;74284;52.610;10.236;2024-02-26T05:53:58;6.50;;;5.10;;
49071;SDS011;74284;52.610;10.236;2024-02-26T05:56:23;7.23;;;5.50;;
49071;SDS011;74284;52.610;10.236;2024-02-26T05:58:48;6.40;;;5.37;;
49071;SDS011;74284;52.610;10.236;2024-02-26T06:01:15;7.63;;;5.47;;
49071;SDS011;74284;52.610;10.236;2024-02-26T06:03:41;7.70;;;5.40;;
49071;SDS011;74284;52.610;10.236;2024-02-26T06:06:07;8.07;;;6.35;;
49071;SDS011;74284;52.610;10.236;2024-02-26T06:08:32;8.32;;;5.90;;
49071;SDS011;74284;52.610;10.236;2024-02-26T06:10:58;7.55;;;5.85;;
49071;SDS011;74284;52.610;10.236;2024-02-26T06:13:23;8.18;;;5.63;;
49071;SDS011;74284;52.610;10.236;2024-02-26T06:15:48;8.13;;;6.25;;
49071;SDS011;74284;52.610;10.236;2024-02-26T06:18:14;8.52;;;6.00;;
49071;SDS011;74284;52.610;10.236;2024-02-26T06:20:39;9.77;;;6.80;;
49071;SDS011;74284;52.610;10.236;2024-02-26T06:23:04;8.73;;;6.57;;
49071;SDS011;74284;52.610;10.236;2024-02-26T06:25:30;8.85;;;7.05;;
49071;SDS011;74284;52.610;10.236;2024-02-26T06:27:55;9.23;;;7.00;;
49071;SDS011;74284;52.610;10.236;2024-02-26T06:30:20;8.85;;;6.68;;
49071;SDS011;74284;52.610;10.236;2024-02-26T06:32:46;8.55;;;6.60;;
49071;SDS011;74284;52.610;10.236;2024-02-26T06:35:11;9.03;;;6.60;;
49071;SDS011;74284;52.610;10.236;2024-02-26T06:37:36;8.55;;;6.28;;
49071;SDS011;74284;52.610;10.236;2024-02-26T06:40:02;7.47;;;6.20;;
49071;SDS011;74284;52.610;10.236;2024-02-26T06:42:31;9.45;;;5.78;;
49071;SDS011;74284;52.610;10.236;2024-02-26T06:44:57;9.45;;;6.30;;
49071;SDS011;74284;52.610;10.236;2024-02-26T06:47:23;7.95;;;5.63;;
49071;SDS011;74284;52.610;10.236;2024-02-26T06:49:48;7.80;;;5.85;;
49071;SDS011;74284;52.610;10.236;2024-02-26T06:52:13;8.82;;;5.85;;
49071;SDS011;74284;52.610;10.236;2024-02-26T06:54:39;7.38;;;5.82;;
49071;SDS011;74284;52.610;10.236;2024-02-26T06:57:04;7.15;;;5.57;;
49071;SDS011;74284;52.610;10.236;2024-02-26T06:59:29;8.17;;;6.00;;
49071;SDS011;74284;52.610;10.236;2024-02-26T07:01:55;8.57;;;5.82;;
49071;SDS011;74284;52.610;10.236;2024-02-26T07:04:20;7.60;;;5.72;;
49071;SDS011;74284;52.610;10.236;2024-02-26T07:06:45;6.67;;;5.33;;
49071;SDS011;74284;52.610;10.236;2024-02-26T07:09:11;7.13;;;5.32;;
49071;SDS011;74284;52.610;10.236;2024-02-26T07:11:37;9.85;;;5.90;;
49071;SDS011;74284;52.610;10.236;2024-02-26T07:14:02;7.75;;;5.53;;
49071;SDS011;74284;52.610;10.236;2024-02-26T07:16:28;8.10;;;5.57;;
49071;SDS011;74284;52.610;10.236;2024-02-26T07:18:53;8.30;;;5.82;;
49071;SDS011;74284;52.610;10.236;2024-02-26T07:21:19;8.50;;;5.47;;
49071;SDS011;74284;52.610;10.236;2024-02-26T07:23:44;6.97;;;5.45;;
49071;SDS011;74284;52.610;10.236;2024-02-26T07:26:09;9.05;;;5.43;;
49071;SDS011;74284;52.610;10.236;2024-02-26T07:28:37;9.00;;;6.10;;
49071;SDS011;74284;52.610;10.236;2024-02-26T07:31:02;10.43;;;6.75;;
49071;SDS011;74284;52.610;10.236;2024-02-26T07:33:28;10.25;;;5.95;;
49071;SDS011;74284;52.610;10.236;2024-02-26T07:35:53;8.25;;;5.50;;
49071;SDS011;74284;52.610;10.236;2024-02-26T07:38:19;7.10;;;4.73;;
49071;SDS011;74284;52.610;10.236;2024-02-26T07:40:44;6.73;;;4.73;;
49071;SDS011;74284;52.610;10.236;2024-02-26T07:43:09;6.50;;;4.60;;
49071;SDS011;74284;52.610;10.236;2024-02-26T07:45:35;6.50;;;4.63;;
49071;SDS011;74284;52.610;10.236;2024-02-26T07:48:01;6.55;;;5.00;;
49071;SDS011;74284;52.610;10.236;2024-02-26T07:50:26;9.75;;;5.70;;
49071;SDS011;74284;52.610;10.236;2024-02-26T07:52:52;9.00;;;6.70;;
49071;SDS011;74284;52.610;10.236;2024-02-26T07:55:18;8.60;;;6.30;;
49071;SDS011;74284;52.610;10.236;2024-02-26T07:57:44;6.55;;;4.43;;
49071;SDS011;74284;52.610;10.236;2024-02-26T08:00:09;6.50;;;4.40;;
49071;SDS011;74284;52.610;10.236;2024-02-26T08:02:38;7.93;;;4.95;;
49071;SDS011;74284;52.610;10.236;2024-02-26T08:05:04;12.40;;;7.18;;
49071;SDS011;74284;52.610;10.236;2024-02-26T08:07:30;11.00;;;7.40;;
49071;SDS011;74284;52.610;10.236;2024-02-26T08:09:55;10.90;;;7.25;;
49071;SDS011;74284;52.610;10.236;2024-02-26T08:12:20;8.35;;;6.10;;
49071;SDS011;74284;52.610;10.236;2024-02-26T08:14:46;7.43;;;4.67;;
49071;SDS011;74284;52.610;10.236;2024-02-26T08:17:11;6.05;;;4.40;;
49071;SDS011;74284;52.610;10.236;2024-02-26T08:19:36;7.15;;;4.70;;
49071;SDS011;74284;52.610;10.236;2024-02-26T08:22:02;6.50;;;4.40;;
49071;SDS011;74284;52.610;10.236;2024-02-26T08:24:27;6.53;;;4.80;;
49071;SDS011;74284;52.610;10.236;2024-02-26T08:26:53;6.30;;;4.78;;
49071;SDS011;74284;52.610;10.236;2024-02-26T08:29:18;7.25;;;4.13;;
49071;SDS011;74284;52.610;10.236;2024-02-26T08:31:44;6.87;;;4.90;;
49071;SDS011;74284;52.610;10.236;2024-02-26T08:34:09;10.77;;;6.47;;
49071;SDS011;74284;52.610;10.236;2024-02-26T08:36:34;8.95;;;5.32;;
49071;SDS011;74284;52.610;10.236;2024-02-26T08:39:00;7.13;;;5.17;;
49071;SDS011;74284;52.610;10.236;2024-02-26T08:41:25;5.07;;;4.18;;
49071;SDS011;74284;52.610;10.236;2024-02-26T08:43:51;7.57;;;5.00;;
49071;SDS011;74284;52.610;10.236;2024-02-26T08:46:16;7.13;;;5.00;;
49071;SDS011;74284;52.610;10.236;2024-02-26T08:48:42;6.55;;;4.28;;
49071;SDS011;74284;52.610;10.236;2024-02-26T08:51:07;6.20;;;4.25;;
49071;SDS011;74284;52.610;10.236;2024-02-26T08:53:33;8.02;;;5.35;;
49071;SDS011;74284;52.610;10.236;2024-02-26T08:55:59;8.60;;;5.30;;
49071;SDS011;74284;52.610;10.236;2024-02-26T08:58:24;8.60;;;5.03;;
49071;SDS011;74284;52.610;10.236;2024-02-26T09:00:50;10.30;;;6.70;;
49071;SDS011;74284;52.610;10.236;2024-02-26T09:03:15;10.30;;;5.95;;
49071;SDS011;74284;52.610;10.236;2024-02-26T09:05:41;8.02;;;5.40;;
49071;SDS011;74284;52.610;10.236;2024-02-26T09:08:06;7.80;;;5.33;;
49071;SDS011;74284;52.610;10.236;2024-02-26T09:10:32;7.55;;;5.05;;
49071;SDS011;74284;52.610;10.236;2024-02-26T09:12:57;8.35;;;5.43;;
49071;SDS011;74284;52.610;10.236;2024-02-26T09:15:23;9.10;;;6.05;;
49071;SDS011;74284;52.610;10.236;2024-02-26T09:17:48;10.68;;;6.53;;
49071;SDS011;74284;52.610;10.236;2024-02-26T09:20:15;9.93;;;7.38;;
49071;SDS011;74284;52.610;10.236;2024-02-26T09:25:07;12.05;;;7.80;;
49071;SDS011;74284;52.610;10.236;2024-02-26T09:27:33;8.32;;;6.28;;
49071;SDS011;74284;52.610;10.236;2024-02-26T09:29:58;6.83;;;5.30;;
49071;SDS011;74284;52.610;10.236;2024-02-26T09:32:23;6.30;;;4.77;;
49071;SDS011;74284;52.610;10.236;2024-02-26T09:37:15;7.47;;;4.82;;
49071;SDS011;74284;52.610;10.236;2024-02-26T09:39:40;7.32;;;4.55;;
49071;SDS011;74284;52.610;10.236;2024-02-26T09:42:05;6.95;;;4.88;;
49071;SDS011;74284;52.610;10.236;2024-02-26T09:44:35;6.25;;;4.18;;
49071;SDS011;74284;52.610;10.236;2024-02-26T09:47:03;6.55;;;4.32;;
49071;SDS011;74284;52.610;10.236;2024-02-26T09:49:32;6.88;;;4.45;;
49071;SDS011;74284;52.610;10.236;2024-02-26T09:51:59;6.97;;;4.35;;
49071;SDS011;74284;52.610;10.236;2024-02-26T09:54:27;6.13;;;4.00;;
49071;SDS011;74284;52.610;10.236;2024-02-26T09:56:56;7.25;;;4.05;;
49071;SDS011;74284;52.610;10.236;2024-02-26T09:59:24;6.97;;;4.00;;
49071;SDS011;74284;52.610;10.236;2024-02-26T10:01:50;8.02;;;4.10;;
49071;SDS011;74284;52.610;10.236;2024-02-26T10:04:15;6.00;;;4.10;;
49071;SDS011;74284;52.610;10.236;2024-02-26T10:06:41;6.43;;;4.22;;
49071;SDS011;74284;52.610;10.236;2024-02-26T10:09:09;5.90;;;4.15;;
49071;SDS011;74284;52.610;10.236;2024-02-26T10:11:35;6.32;;;4.13;;
49071;SDS011;74284;52.610;10.236;2024-02-26T10:14:02;6.65;;;4.03;;
49071;SDS011;74284;52.610;10.236;2024-02-26T10:16:28;6.50;;;3.90;;
49071;SDS011;74284;52.610;10.236;2024-02-26T10:18:53;6.38;;;4.13;;
49071;SDS011;74284;52.610;10.236;2024-02-26T10:21:19;7.50;;;4.35;;
49071;SDS011;74284;52.610;10.236;2024-02-26T10:23:45;6.75;;;4.25;;
49071;SDS011;74284;52.610;10.236;2024-02-26T10:26:12;5.95;;;4.15;;
49071;SDS011;74284;52.610;10.236;2024-02-26T10:28:39;6.72;;;3.75;;
49071;SDS011;74284;52.610;10.236;2024-02-26T10:31:05;7.50;;;4.00;;
49071;SDS011;74284;52.610;10.236;2024-02-26T10:33:33;6.35;;;3.97;;
49071;SDS011;74284;52.610;10.236;2024-02-26T10:36:00;5.43;;;3.70;;
49071;SDS011;74284;52.610;10.236;2024-02-26T10:38:26;6.80;;;3.72;;
49071;SDS011;74284;52.610;10.236;2024-02-26T10:40:51;6.30;;;4.27;;
49071;SDS011;74284;52.610;10.236;2024-02-26T10:43:16;6.07;;;4.03;;
49071;SDS011;74284;52.610;10.236;2024-02-26T10:45:43;5.57;;;3.78;;
49071;SDS011;74284;52.610;10.236;2024-02-26T10:48:09;6.65;;;4.00;;
49071;SDS011;74284;52.610;10.236;2024-02-26T10:50:36;6.00;;;3.95;;
49071;SDS011;74284;52.610;10.236;2024-02-26T10:53:01;5.63;;;3.85;;
49071;SDS011;74284;52.610;10.236;2024-02-26T10:55:29;7.43;;;4.28;;
49071;SDS011;74284;52.610;10.236;2024-02-26T10:57:58;5.22;;;3.70;;
49071;SDS011;74284;52.610;10.236;2024-02-26T11:00:23;6.40;;;3.55;;
49071;SDS011;74284;52.610;10.236;2024-02-26T11:02:49;5.03;;;3.20;;
49071;SDS011;74284;52.610;10.236;2024-02-26T11:05:16;4.35;;;3.00;;
49071;SDS011;74284;52.610;10.236;2024-02-26T11:07:42;4.97;;;3.28;;
49071;SDS011;74284;52.610;10.236;2024-02-26T11:10:09;6.70;;;3.42;;
49071;SDS011;74284;52.610;10.236;2024-02-26T11:12:36;5.30;;;3.55;;
49071;SDS011;74284;52.610;10.236;2024-02-26T11:15:04;6.60;;;3.67;;
49071;SDS011;74284;52.610;10.236;2024-02-26T11:17:30;7.43;;;3.63;;
49071;SDS011;74284;52.610;10.236;2024-02-26T11:19:58;5.05;;;3.00;;
49071;SDS011;74284;52.610;10.236;2024-02-26T11:22:25;7.35;;;3.90;;
49071;SDS011;74284;52.610;10.236;2024-02-26T11:24:54;4.75;;;2.85;;
49071;SDS011;74284;52.610;10.236;2024-02-26T11:27:23;3.95;;;2.70;;
49071;SDS011;74284;52.610;10.236;2024-02-26T11:29:51;4.53;;;2.60;;
49071;SDS011;74284;52.610;10.236;2024-02-26T11:32:18;3.15;;;2.50;;
49071;SDS011;74284;52.610;10.236;2024-02-26T11:34:44;4.30;;;2.63;;
49071;SDS011;74284;52.610;10.236;2024-02-26T11:37:10;4.80;;;2.63;;
49071;SDS011;74284;52.610;10.236;2024-02-26T11:39:36;4.43;;;2.50;;
49071;SDS011;74284;52.610;10.236;2024-02-26T11:42:07;4.90;;;3.05;;
49071;SDS011;74284;52.610;10.236;2024-02-26T11:44:33;4.05;;;2.90;;
49071;SDS011;74284;52.610;10.236;2024-02-26T11:46:59;4.28;;;2.67;;
49071;SDS011;74284;52.610;10.236;2024-02-26T11:49:34;3.70;;;2.15;;
49071;SDS011;74284;52.610;10.236;2024-02-26T12:02:38;3.58;;;2.17;;
49071;SDS011;74284;52.610;10.236;2024-02-26T12:07:55;4.65;;;2.63;;
49071;SDS011;74284;52.610;10.236;2024-02-26T12:10:30;5.70;;;2.53;;
49071;SDS011;74284;52.610;10.236;2024-02-26T12:13:02;3.75;;;2.42;;
49071;SDS011;74284;52.610;10.236;2024-02-26T12:15:36;5.00;;;2.65;;
49071;SDS011;74284;52.610;10.236;2024-02-26T12:18:03;5.05;;;2.90;;
49071;SDS011;74284;52.610;10.236;2024-02-26T12:20:30;5.43;;;2.80;;
49071;SDS011;74284;52.610;10.236;2024-02-26T12:22:56;5.72;;;2.88;;
49071;SDS011;74284;52.610;10.236;2024-02-26T12:25:23;4.38;;;2.50;;
49071;SDS011;74284;52.610;10.236;2024-02-26T12:27:51;6.80;;;2.55;;
49071;SDS011;74284;52.610;10.236;2024-02-26T12:30:17;4.18;;;2.47;;
49071;SDS011;74284;52.610;10.236;2024-02-26T12:32:43;6.65;;;3.60;;
49071;SDS011;74284;52.610;10.236;2024-02-26T12:35:08;4.82;;;2.78;;
49071;SDS011;74284;52.610;10.236;2024-02-26T12:37:33;6.55;;;2.53;;
49071;SDS011;74284;52.610;10.236;2024-02-26T12:40:02;3.92;;;2.38;;
49071;SDS011;74284;52.610;10.236;2024-02-26T12:42:30;4.20;;;2.38;;
49071;SDS011;74284;52.610;10.236;2024-02-26T12:44:58;4.55;;;2.92;;
49071;SDS011;74284;52.610;10.236;2024-02-26T12:47:23;3.83;;;2.30;;
49071;SDS011;74284;52.610;10.236;2024-02-26T12:49:49;6.47;;;3.65;;
49071;SDS011;74284;52.610;10.236;2024-02-26T12:52:14;6.45;;;2.25;;
49071;SDS011;74284;52.610;10.236;2024-02-26T12:54:41;5.07;;;2.63;;
49071;SDS011;74284;52.610;10.236;2024-02-26T12:59:34;4.45;;;2.50;;
49071;SDS011;74284;52.610;10.236;2024-02-26T13:02:01;4.40;;;2.50;;
49071;SDS011;74284;52.610;10.236;2024-02-26T13:06:54;3.72;;;2.20;;
49071;SDS011;74284;52.610;10.236;2024-02-26T13:09:19;4.80;;;2.83;;
49071;SDS011;74284;52.610;10.236;2024-02-26T13:11:44;3.30;;;2.10;;
49071;SDS011;74284;52.610;10.236;2024-02-26T13:14:19;4.47;;;1.92;;
49071;SDS011;74284;52.610;10.236;2024-02-26T13:16:53;6.63;;;2.50;;
49071;SDS011;74284;52.610;10.236;2024-02-26T13:19:19;3.70;;;2.40;;
49071;SDS011;74284;52.610;10.236;2024-02-26T13:21:45;4.40;;;2.33;;
49071;SDS011;74284;52.610;10.236;2024-02-26T13:24:12;4.60;;;2.43;;
49071;SDS011;74284;52.610;10.236;2024-02-26T13:26:38;3.95;;;2.40;;
49071;SDS011;74284;52.610;10.236;2024-02-26T13:29:03;4.18;;;2.35;;
49071;SDS011;74284;52.610;10.236;2024-02-26T13:31:29;4.03;;;2.78;;
49071;SDS011;74284;52.610;10.236;2024-02-26T13:33:55;4.32;;;2.70;;
49071;SDS011;74284;52.610;10.236;2024-02-26T13:36:21;3.70;;;2.28;;
49071;SDS011;74284;52.610;10.236;2024-02-26T13:38:54;3.15;;;2.13;;
49071;SDS011;74284;52.610;10.236;2024-02-26T13:41:20;4.35;;;2.35;;
49071;SDS011;74284;52.610;10.236;2024-02-26T13:43:46;5.70;;;2.63;;
49071;SDS011;74284;52.610;10.236;2024-02-26T13:46:12;3.40;;;2.40;;
49071;SDS011;74284;52.610;10.236;2024-02-26T13:48:39;4.05;;;2.30;;
49071;SDS011;74284;52.610;10.236;2024-02-26T13:51:04;4.32;;;2.25;;
49071;SDS011;74284;52.610;10.236;2024-02-26T13:53:30;4.03;;;2.28;;
49071;SDS011;74284;52.610;10.236;2024-02-26T13:55:55;4.15;;;2.08;;
49071;SDS011;74284;52.610;10.236;2024-02-26T13:58:22;3.92;;;2.30;;
49071;SDS011;74284;52.610;10.236;2024-02-26T14:00:48;3.38;;;1.98;;
49071;SDS011;74284;52.610;10.236;2024-02-26T14:03:14;7.80;;;2.13;;
49071;SDS011;74284;52.610;10.236;2024-02-26T14:05:41;3.72;;;2.22;;
49071;SDS011;74284;52.610;10.236;2024-02-26T14:08:06;3.53;;;2.40;;
49071;SDS011;74284;52.610;10.236;2024-02-26T14:10:32;4.33;;;2.60;;
49071;SDS011;74284;52.610;10.236;2024-02-26T14:12:57;4.38;;;2.58;;
49071;SDS011;74284;52.610;10.236;2024-02-26T14:15:27;4.05;;;2.30;;
49071;SDS011;74284;52.610;10.236;2024-02-26T14:17:53;3.95;;;2.40;;
49071;SDS011;74284;52.610;10.236;2024-02-26T14:20:22;3.90;;;2.30;;
49071;SDS011;74284;52.610;10.236;2024-02-26T14:22:49;3.95;;;2.40;;
49071;SDS011;74284;52.610;10.236;2024-02-26T14:25:16;4.10;;;2.30;;
49071;SDS011;74284;52.610;10.236;2024-02-26T14:27:41;4.47;;;2.20;;
49071;SDS011;74284;52.610;10.236;2024-02-26T14:30:07;3.63;;;2.30;;
49071;SDS011;74284;52.610;10.236;2024-02-26T14:32:32;3.08;;;2.20;;
49071;SDS011;74284;52.610;10.236;2024-02-26T14:35:01;4.07;;;2.45;;
49071;SDS011;74284;52.610;10.236;2024-02-26T14:37:27;4.40;;;2.35;;
49071;SDS011;74284;52.610;10.236;2024-02-26T14:39:53;4.82;;;2.85;;
49071;SDS011;74284;52.610;10.236;2024-02-26T14:42:18;4.50;;;2.80;;
49071;SDS011;74284;52.610;10.236;2024-02-26T14:44:44;4.47;;;2.35;;
49071;SDS011;74284;52.610;10.236;2024-02-26T14:47:09;4.82;;;2.63;;
49071;SDS011;74284;52.610;10.236;2024-02-26T14:49:34;3.63;;;2.40;;
49071;SDS011;74284;52.610;10.236;2024-02-26T14:52:00;4.32;;;2.67;;
49071;SDS011;74284;52.610;10.236;2024-02-26T14:54:25;4.25;;;2.63;;
49071;SDS011;74284;52.610;10.236;2024-02-26T14:56:50;3.38;;;2.13;;
49071;SDS011;74284;52.610;10.236;2024-02-26T15:01:41;3.95;;;2.38;;
49071;SDS011;74284;52.610;10.236;2024-02-26T15:06:32;5.00;;;2.17;;